Aviation Digital Data Service (ADDS)

Output produced by METARs form (0325 UTC 21 September 2017)
found at http://www.aviationweather.gov/adds/metars/
 
KLAF 202324Z 2100/2124 17005KT P6SM SKC 
     FM211000 VRB03KT 4SM BR SCT200 
     FM211400 19004KT 5SM BR SCT150 
     FM211700 19005KT P6SM FEW040 AMD LTD TO CLD VIS AND WIND 2101/2113
       
KLAL 202324Z 2100/2124 08007KT P6SM SCT060 
     FM210200 VRB03KT P6SM FEW050 SCT200 
     FM211500 06007KT P6SM SCT050 SCT250 AMD NOT SKED 2102/2111
       
KLAN 202340Z 2100/2124 17005KT P6SM SKC 
     FM210900 18004KT 5SM BR SCT050 
     FM211500 19007KT P6SM SCT035
       
KLAR 210316Z 2103/2124 15012KT P6SM SKC 
     FM211500 20020G30KT P6SM SCT100
       
KLAS 210249Z 2103/2206 20014G22KT P6SM SKC 
     FM210600 21018G26KT P6SM SKC 
     FM211800 20025G37KT P6SM FEW200 
     FM220500 27012KT P6SM FEW200
       
KLAX 210305Z 2103/2206 27008KT P6SM SCT017 SCT035 
     FM210700 17006KT P6SM VCSH BKN012 BKN025 
     FM211700 VRB03KT P6SM VCSH BKN025 BKN040 
     FM211900 26014G20KT P6SM SCT025 BKN040 
     FM220300 27012KT P6SM SCT040
       
KLBB 202321Z 2100/2124 02007KT P6SM SKC 
     FM210700 16007KT P6SM SKC WS020/22045KT 
     FM211300 20011KT P6SM FEW250
       
KLBE 202337Z 2100/2124 00000KT P6SM SKC 
     FM210800 00000KT 3SM BR SCT003 
     TEMPO 2108/2112 2SM BR 
     FM211300 VRB03KT P6SM SCT040
       
KLBF 202320Z 2100/2124 15006KT P6SM SKC 
     FM211100 14007KT P6SM SKC WS015/16035KT 
     FM211400 15008KT P6SM FEW250 
     FM211700 17012G19KT P6SM SKC
       
KLBL 202327Z 2100/2124 10006KT P6SM SKC 
     FM210900 16006KT P6SM SKC 
     FM211200 19006KT P6SM SKC 
     FM211400 19010KT P6SM SKC 
     FM211700 20017G25KT P6SM SKC
       
KLBT 210219Z 2102/2124 VRB03KT P6SM BKN060 
     FM210500 VRB02KT P6SM SCT060 
     FM210900 VRB03KT 3SM BR SCT050 
     FM211200 VRB03KT P6SM FEW250 
     FM211700 03004KT P6SM SCT250
       
KLCK 202339Z 2100/2124 VRB03KT P6SM FEW100 SCT250 
     FM210600 00000KT 5SM BR SCT250 
     FM211000 00000KT 2SM BR SKC 
     TEMPO 2110/2113 1SM BR SCT002 
     FM211400 VRB03KT P6SM FEW030
       
KLCH 202337Z 2100/2124 18004KT P6SM VCSH SCT025 BKN250 
     FM210200 14003KT P6SM SCT250 
     FM210900 00000KT 4SM BR SKC 
     TEMPO 2111/2114 2SM BR BKN007 
     FM211400 16006KT P6SM VCSH SCT025 SCT250
       
KLEB 202320Z 2100/2124 00000KT P6SM BKN250 
     FM210900 00000KT 2SM BR SCT002 
     FM211300 36007KT P6SM BKN250
       
KLEE 202330Z 2100/2124 VRB05KT P6SM FEW250 
     FM211500 07006KT P6SM SCT030 SCT250 
     FM211800 07009KT P6SM SCT050 SCT250
       
KLEX 202320Z 2100/2124 24004KT P6SM BKN035 
     FM210600 00000KT 5SM BR FEW200 
     FM210900 00000KT 1SM BR SCT200 
     TEMPO 2110/2112 1/2SM FG 
     FM211300 VRB03KT P6SM FEW035 SCT200
       
TAF KLFI 210100Z 2101/2207 30006KT 9999 FEW030 QNH2995INS WND 34006KT AFT 2107 
     BECMG 2111/2112 01006KT 9999 BKN025 QNH2999INS 
     BECMG 2206/2207 VRB06KT 9999 OVC015 QNH3000INS TX30/2120Z TN19/2110Z
       
KLFK 202320Z 2100/2124 15004KT P6SM SCT050 SCT250 
     TEMPO 2105/2109 5SM BR BKN005 
     FM210900 15003KT 5SM BR BKN005 
     TEMPO 2109/2113 2SM BR BKN015 
     FM211300 16003KT 5SM BR BKN010 
     TEMPO 2113/2116 P6SM NSW BKN025 
     FM211600 16007KT P6SM BKN025 
     FM211800 16008KT P6SM SCT035 SCT045 SCT250
       
KLFT 202337Z 2100/2124 VRB04KT P6SM VCSH SCT035 BKN250 
     FM210200 16003KT P6SM SCT250 
     FM210900 00000KT 4SM BR SCT012 
     TEMPO 2111/2113 2SM BR SCT007 
     FM211400 VRB04KT P6SM VCSH SCT025 SCT250
       
KLGA 210201Z 2102/2124 34010KT P6SM SCT150 BKN250 
     FM211400 36013G20KT P6SM FEW040 BKN250 
     FM212300 36010KT P6SM SCT050 BKN250
       
KLGB 202346Z 2100/2124 19008KT P6SM SCT035 
     FM210700 15006KT P6SM VCSH BKN012 BKN025 
     FM211700 19010KT P6SM VCSH BKN025 BKN040 
     FM212000 21012G18KT P6SM SCT025 BKN040
       
KLGU 202321Z 2100/2124 22010KT P6SM BKN090 
     FM210300 35010KT P6SM VCSH BKN050 OVC090 
     FM211200 34008KT 6SM -SHRA BKN025 OVC050
       
KLIT 202334Z 2100/2124 16003KT P6SM SKC 
     FM211500 19006KT P6SM BKN050 
     FM211800 17009KT P6SM BKN050
       
KLLQ 202334Z 2100/2124 17003KT P6SM SKC 
     TEMPO 2109/2113 4SM BR 
     FM211500 20005KT P6SM BKN040 
     FM211800 18007KT P6SM VCSH BKN050
       
KLMT 202339Z 2100/2124 30020G30KT P6SM -SHRA SCT030 BKN050 BKN070 
     FM210600 30006KT P6SM VCSH SCT009 BKN012 
     FM211200 00000KT P6SM BKN100 
     FM212100 32009G16KT P6SM BKN100
       
KLNK 202335Z 2100/2124 03009KT P6SM SKC 
     FM211100 10005KT P6SM SCT150 
     FM211500 16007KT P6SM SCT050
       
KLNS 210320Z 2103/2124 33004KT P6SM SKC 
     FM210900 31003KT 4SM BR SKC 
     FM211200 33003KT P6SM SKC
       
KLOZ 202324Z 2100/2124 VRB03KT P6SM FEW040 
     FM210600 00000KT 2SM BR SKC 
     FM210800 00000KT 1/2SM FG SCT003 
     FM211300 VRB03KT P6SM SKC 
     FM211700 VRB03KT P6SM SCT035
       
KLRD 202337Z 2100/2124 15012KT P6SM FEW070 BKN250 
     FM210200 14016G22KT P6SM SCT120 BKN250 
     FM210900 15010KT P6SM FEW020 SCT250 
     FM211500 15012KT P6SM SCT030 SCT250 
     FM212000 15014KT P6SM VCTS BKN050CB BKN250
       
TAF KLRF 202300Z 2023/2205 16006KT 9999 FEW045 QNH2988INS 
     BECMG 2109/2110 VRB03KT 9999 SCT015 QNH2992INS 
     BECMG 2115/2116 18009KT 9999 FEW030 QNH2994INS 
     BECMG 2122/2123 16003KT 9999 SCT030 QNH2998INS TX33/2023Z TN22/2111Z
       
KLRU 202339Z 2100/2124 25012KT P6SM FEW080 
     FM210300 28010KT P6SM FEW080 
     FM211700 24012G20KT P6SM FEW100
       
KLSE 202320Z 2100/2124 31007KT P6SM SCT040 BKN080 
     FM210200 36004KT P6SM SKC 
     FM211200 10005KT P6SM SCT020 
     FM211700 15007KT P6SM SCT050
       
TAF KLSF 210100Z 2101/2207 VRB06KT 9999 SKC QNH2994INS 
     BECMG 2108/2109 VRB06KT 4800 BR SKC QNH2994INS 
     BECMG 2114/2115 06006KT 9999 NSW SCT040 BKN065 QNH2992INS 
     BECMG 2123/2124 10006KT 9999 SKC QNH2992INS TX33/2121Z TN20/2112Z
       
TAF KLSV 202305Z 2023/2205 19012G20KT 9999 SKC QNH2962INS 
     TEMPO 2023/2101 19015G25KT 
     BECMG 2100/2101 20015G25KT 9999 SKC QNH2964INS 
     TEMPO 2108/2115 24025G35KT 520009 
     BECMG 2114/2115 23025G35KT 9999 FEW200 520009 QNH2963INS 
     TEMPO 2120/2202 20035G45KT 530009 TX33/2023Z TN19/2112Z
       
TAF KLTS 210100Z 2101/2207 04006KT 9999 FEW100 QNH2977INS 
     BECMG 2105/2106 15009KT 9999 FEW030 SCT100 QNH2981INS 
     BECMG 2114/2115 16012G18KT 9999 FEW030 SCT100 BKN150 QNH2978INS 
     TEMPO 2121/2124 17015G25KT 
     BECMG 2123/2124 15012KT 9999 FEW040 SCT060 QNH2980INS TX35/2120Z TN20/2111Z
       
TAF KLUF 202003Z 2020/2202 15009KT 9999 SKC QNH2969INS 
     TEMPO 2021/2101 21012G18KT 
     BECMG 2101/2102 05009KT 9999 SKC QNH2970INS 
     BECMG 2115/2116 21012KT 9999 SKC QNH2963INS TX36/2022Z TN18/2112Z
       
KLVK 202339Z 2100/2124 26015G18KT P6SM FEW024 BKN030 BKN035 
     FM210400 23009KT P6SM FEW025 BKN030 
     FM211800 27008KT P6SM SKC 
     FM212200 26012KT P6SM SKC
       
KLVM 210319Z 2103/2124 VRB06KT 6SM -SHRA SCT020 BKN035 
     FM210500 21014G28KT P6SM -SHRA SCT040 SCT080 BKN120 
     FM211000 25012KT P6SM SCT120 
     FM211600 25014G20KT P6SM SCT120 
     FM212200 VRB06KT P6SM FEW040 BKN100
       
KLVS 202320Z 2100/2124 21015G25KT P6SM SKC 
     FM210200 19010KT P6SM SKC 
     FM211600 23015G25KT P6SM SKC 
     FM211900 23024G36KT P6SM SKC
       
KLWB 202330Z 2100/2124 00000KT P6SM VCSH SCT035 
     FM210800 00000KT P6SM BKN030 BKN035 
     FM210900 00000KT 1SM BR SCT015 BKN025 
     FM211100 00000KT 1/2SM FG SCT015 BKN030 
     FM211200 00000KT P6SM SCT030
       
KLWS 202338Z 2100/2124 31003KT P6SM -SHRA SCT040 BKN060 
     FM210200 16006KT P6SM VCSH FEW030 BKN060 
     FM210900 16003KT P6SM SCT020 OVC040 
     FM211500 09004KT P6SM BKN035 BKN050 
     FM211900 30006KT P6SM VCSH BKN060
       
KLWT 210201Z 2102/2124 22018KT P6SM VCSH SCT070 OVC100 
     FM210300 22014KT P6SM SCT060 BKN090 
     FM211700 28008KT P6SM FEW050 SCT200 
     FM212000 32009KT P6SM SCT060 BKN110
       
KLYH 202330Z 2100/2124 00000KT P6SM FEW060 
     FM210100 00000KT P6SM VCSH FEW050 
     FM210300 00000KT P6SM SCT050 
     FM211100 00000KT 4SM BR FEW025 SCT050 
     FM211200 00000KT P6SM SCT045